Time;durP1;ratioP1;P1;durP2;ratioP2;P2;SDS_P1;SDS_P2;PMS_P1;PMS_P2;Temp;Humidity;BMP_temperature;BMP_pressure;BME280_temperature;BME280_humidity;BME280_pressure;Samples;Min_cycle;Max_cycle;Signal;HPM_P1;HPM_P2
2023/01/31 00:02:40;;;;;;;7.37;3.87;;;;;;;8.05;65.56;101612.81;6183558;28;20233;-68
2023/01/31 00:06:17;;;;;;;6.63;2.27;;;;;;;7.98;65.99;101606.13;6176276;28;20990;-68
2023/01/31 00:09:40;;;;;;;11.07;2.60;;;;;;;8.25;65.24;101604.31;6186178;28;20517;-67
2023/01/31 00:13:01;;;;;;;2.90;1.87;;;;;;;7.99;66.48;101600.63;6156706;28;20254;-68
2023/01/31 00:16:22;;;;;;;3.17;2.43;;;;;;;7.88;67.22;101607.69;6151240;28;20265;-68
2023/01/31 00:19:43;;;;;;;3.20;1.97;;;;;;;7.81;67.36;101603.69;6161862;28;20573;-67
2023/01/31 00:23:04;;;;;;;4.63;3.30;;;;;;;7.73;66.98;101606.88;6165048;28;20801;-68
2023/01/31 00:26:28;;;;;;;2.90;1.77;;;;;;;7.88;66.72;101616.63;6156227;28;20242;-69
2023/01/31 00:29:49;;;;;;;5.90;1.20;;;;;;;7.47;67.58;101620.25;6184986;28;20218;-68
2023/01/31 00:33:10;;;;;;;2.30;1.90;;;;;;;7.50;67.19;101620.91;6166481;28;20615;-67
2023/01/31 00:36:34;;;;;;;5.20;1.60;;;;;;;7.85;66.65;101624.84;6178627;28;20321;-67
2023/01/31 00:39:55;;;;;;;6.63;1.53;;;;;;;7.79;66.88;101625.25;6196808;28;20241;-68
2023/01/31 00:43:17;;;;;;;3.27;2.03;;;;;;;7.61;68.11;101644.38;6186497;28;20229;-68
2023/01/31 00:46:38;;;;;;;10.23;2.80;;;;;;;7.96;67.50;101645.63;6177014;28;20309;-68
2023/01/31 00:49:59;;;;;;;6.30;3.17;;;;;;;8.24;66.13;101637.44;6187031;28;20229;-68
2023/01/31 00:53:22;;;;;;;4.90;1.77;;;;;;;8.27;66.56;101639.97;6184418;28;20217;-68
2023/01/31 00:56:43;;;;;;;5.67;2.30;;;;;;;7.85;68.69;101642.78;6184268;28;20229;-69
2023/01/31 01:00:07;;;;;;;9.23;2.20;;;;;;;8.17;69.32;101668.38;6173331;28;20233;-68
2023/01/31 01:03:29;;;;;;;2.23;1.13;;;;;;;7.79;69.59;101645.88;6191193;28;20593;-67
2023/01/31 01:06:50;;;;;;;4.53;1.50;;;;;;;7.52;70.10;101656.56;6184041;28;20253;-68
2023/01/31 01:10:12;;;;;;;4.47;2.93;;;;;;;7.55;70.04;101648.28;6170353;28;20261;-67
2023/01/31 01:13:33;;;;;;;4.00;1.17;;;;;;;7.47;69.69;101637.19;6180104;28;20230;-67
2023/01/31 01:16:57;;;;;;;1.63;1.50;;;;;;;7.41;71.03;101647.44;6180529;28;20234;-67
2023/01/31 01:20:18;;;;;;;3.27;0.97;;;;;;;7.33;71.45;101647.94;6183419;28;20501;-69
2023/01/31 01:23:40;;;;;;;1.37;1.10;;;;;;;7.43;71.64;101649.06;6181557;28;20241;-67
2023/01/31 01:27:03;;;;;;;3.80;1.27;;;;;;;7.59;70.49;101649.84;6189370;28;20232;-67
2023/01/31 01:30:25;;;;;;;2.47;1.43;;;;;;;7.67;70.16;101655.59;6183514;28;20237;-68
2023/01/31 01:33:48;;;;;;;8.73;1.83;;;;;;;7.66;70.12;101659.22;6183713;28;20787;-67
2023/01/31 01:37:10;;;;;;;2.07;1.40;;;;;;;7.97;69.61;101647.34;6185977;28;20296;-67
2023/01/31 01:40:35;;;;;;;2.73;2.20;;;;;;;7.78;69.78;101653.03;6177542;28;20229;-68
2023/01/31 01:43:58;;;;;;;3.60;2.53;;;;;;;7.92;69.11;101650.34;6187592;28;20268;-66
2023/01/31 01:47:27;;;;;;;1.47;1.30;;;;;;;7.85;69.43;101643.66;6183244;28;20316;-67
2023/01/31 01:50:50;;;;;;;3.13;2.10;;;;;;;7.65;70.45;101652.13;6189936;28;20249;-68
2023/01/31 01:54:15;;;;;;;2.37;1.80;;;;;;;7.70;69.95;101644.63;6179462;28;20233;-67
2023/01/31 01:57:41;;;;;;;2.93;1.90;;;;;;;7.56;70.27;101643.78;6178910;28;20229;-67
2023/01/31 02:01:04;;;;;;;4.23;1.40;;;;;;;7.44;70.36;101656.19;6178568;28;20233;-68
2023/01/31 02:04:31;;;;;;;4.37;2.63;;;;;;;7.17;71.75;101658.78;6180561;28;20237;-67
2023/01/31 02:07:54;;;;;;;8.10;2.67;;;;;;;7.53;70.22;101668.16;6194042;28;20309;-67
2023/01/31 02:11:21;;;;;;;11.90;3.43;;;;;;;7.43;70.58;101661.63;6170927;28;20261;-67
2023/01/31 02:14:42;;;;;;;9.17;2.50;;;;;;;7.46;70.49;101670.38;6162190;28;20801;-68
2023/01/31 02:18:04;;;;;;;4.70;1.77;;;;;;;7.87;69.42;101673.94;6161235;28;20317;-67
2023/01/31 02:22:03;;;;;;;3.27;1.80;;;;;;;7.73;69.60;101665.91;6168544;28;20229;-67
2023/01/31 02:26:00;;;;;;;2.20;2.00;;;;;;;7.93;69.00;101686.09;6147792;28;20242;-67
2023/01/31 02:29:42;;;;;;;2.73;2.53;;;;;;;8.01;69.31;101681.06;6190795;28;20229;-67
2023/01/31 02:33:13;;;;;;;9.90;2.27;;;;;;;7.68;70.10;101676.06;6168749;28;20257;-67
2023/01/31 02:36:47;;;;;;;3.40;1.87;;;;;;;7.62;71.00;101684.50;6182886;28;23774;-68
2023/01/31 02:40:15;;;;;;;9.03;2.97;;;;;;;7.77;70.22;101680.84;6171848;28;20237;-66
2023/01/31 02:47:29;;;;;;;8.07;2.77;;;;;;;7.84;69.53;101682.16;6173237;28;20234;-67
2023/01/31 02:51:00;;;;;;;2.93;2.80;;;;;;;7.64;70.33;101695.16;6176186;28;20820;-68
2023/01/31 02:56:13;;;;;;;11.50;2.73;;;;;;;7.67;71.14;101677.06;6165259;28;20226;-68
2023/01/31 02:58:10;;;;;;;10.70;3.80;;;;;;;7.86;70.41;101692.84;6177796;28;20233;-67
2023/01/31 03:01:33;;;;;;;5.23;2.47;;;;;;;7.72;70.44;101693.69;6180172;28;20734;-67
2023/01/31 03:04:54;;;;;;;2.40;1.93;;;;;;;7.40;71.99;101692.22;6184004;28;20329;-67
2023/01/31 03:08:21;;;;;;;3.60;1.53;;;;;;;7.48;71.53;101691.72;6184623;28;20249;-67
2023/01/31 03:11:52;;;;;;;7.00;1.83;;;;;;;7.64;72.14;101682.59;6199186;28;20245;-66
2023/01/31 03:17:30;;;;;;;2.47;1.93;;;;;;;7.36;73.34;101684.44;6192354;28;20238;-67
2023/01/31 03:19:16;;;;;;;3.07;1.80;;;;;;;6.95;74.34;101684.28;6195329;28;20241;-67
2023/01/31 03:22:40;;;;;;;2.97;1.83;;;;;;;7.21;73.45;101678.22;6184332;28;20303;-67
2023/01/31 03:26:06;;;;;;;3.60;3.07;;;;;;;6.92;75.35;101669.28;6175487;28;20246;-66
2023/01/31 03:29:29;;;;;;;3.60;1.70;;;;;;;6.95;75.26;101662.84;6179381;28;20233;-66
2023/01/31 03:32:55;;;;;;;2.40;2.00;;;;;;;7.48;73.33;101652.34;6176927;28;20225;-68
2023/01/31 03:36:26;;;;;;;8.07;1.93;;;;;;;7.51;73.17;101653.97;6185788;28;20548;-67
2023/01/31 03:39:59;;;;;;;3.83;1.47;;;;;;;7.52;73.35;101651.19;6183979;28;20233;-66
2023/01/31 03:43:28;;;;;;;5.93;2.23;;;;;;;7.02;74.98;101651.69;6176667;28;20233;-67
2023/01/31 03:46:59;;;;;;;3.83;1.87;;;;;;;6.63;76.04;101664.84;6180559;28;20233;-67
2023/01/31 03:50:25;;;;;;;2.43;1.13;;;;;;;6.79;76.59;101664.75;6183743;28;20233;-66
2023/01/31 03:53:52;;;;;;;2.63;1.80;;;;;;;6.94;76.22;101664.69;6182902;28;20237;-68
2023/01/31 03:57:17;;;;;;;7.80;3.30;;;;;;;6.75;76.17;101657.84;6184530;28;20246;-68
2023/01/31 04:00:42;;;;;;;1.77;1.37;;;;;;;6.54;77.70;101661.81;6178269;28;20229;-68
2023/01/31 04:04:08;;;;;;;6.30;2.23;;;;;;;6.45;77.82;101660.53;6186641;28;20261;-67
2023/01/31 04:07:29;;;;;;;2.07;1.50;;;;;;;6.52;77.99;101655.69;6183840;28;20238;-68
2023/01/31 04:10:50;;;;;;;4.03;2.43;;;;;;;6.55;77.67;101669.75;6181950;28;20226;-68
2023/01/31 04:14:11;;;;;;;8.17;3.43;;;;;;;6.56;77.93;101673.31;6187385;28;20230;-68
2023/01/31 04:17:33;;;;;;;8.23;3.43;;;;;;;6.59;77.52;101663.28;6181276;28;20526;-68
2023/01/31 04:20:54;;;;;;;3.57;2.40;;;;;;;6.76;77.77;101665.78;6165476;28;20234;-68
2023/01/31 04:24:15;;;;;;;5.60;1.83;;;;;;;6.90;77.30;101657.81;6156647;28;20338;-66
2023/01/31 04:27:36;;;;;;;8.93;3.53;;;;;;;6.48;78.61;101649.66;6160468;28;20235;-67
2023/01/31 04:30:57;;;;;;;4.20;2.10;;;;;;;6.56;79.35;101647.38;6157654;28;20230;-68
2023/01/31 04:34:19;;;;;;;3.63;2.27;;;;;;;6.38;79.51;101638.63;6178721;28;20699;-67
2023/01/31 04:37:40;;;;;;;7.13;2.37;;;;;;;6.84;77.88;101638.56;6179387;28;20249;-67
2023/01/31 04:41:01;;;;;;;1.77;1.60;;;;;;;6.56;79.76;101646.50;6182187;28;20312;-67
2023/01/31 04:44:22;;;;;;;9.83;2.50;;;;;;;6.54;79.64;101648.44;6183365;28;20507;-68
2023/01/31 04:47:43;;;;;;;5.60;2.77;;;;;;;6.69;80.01;101636.81;6183870;28;20230;-67
2023/01/31 04:51:05;;;;;;;8.20;3.07;;;;;;;7.14;78.11;101639.31;6196213;28;20320;-68
2023/01/31 04:54:27;;;;;;;8.13;4.07;;;;;;;6.56;80.22;101641.16;6196127;28;20234;-67
2023/01/31 04:57:47;;;;;;;2.17;1.97;;;;;;;6.97;79.58;101642.19;6186514;28;20587;-67
2023/01/31 05:01:08;;;;;;;2.47;2.00;;;;;;;6.61;80.56;101657.84;6178944;28;20297;-68
2023/01/31 05:04:29;;;;;;;6.87;2.90;;;;;;;6.95;79.46;101650.31;6188454;28;20368;-68
2023/01/31 05:07:51;;;;;;;6.67;4.33;;;;;;;6.58;81.10;101641.94;6188758;28;20230;-68
2023/01/31 05:11:12;;;;;;;6.10;2.50;;;;;;;7.31;78.42;101657.03;6183175;28;20348;-67
2023/01/31 05:14:33;;;;;;;4.57;2.00;;;;;;;7.17;77.91;101637.34;6179654;28;20234;-68
2023/01/31 05:18:01;;;;;;;4.63;1.53;;;;;;;7.69;76.54;101648.28;6182701;28;20229;-68
2023/01/31 05:21:22;;;;;;;2.93;2.33;;;;;;;7.04;78.69;101635.50;6183791;28;20214;-68
2023/01/31 05:24:44;;;;;;;6.57;3.10;;;;;;;6.85;79.54;101637.59;6184430;28;20230;-68
2023/01/31 05:28:05;;;;;;;4.77;2.97;;;;;;;6.68;80.12;101637.72;6171562;28;20226;-67
2023/01/31 05:31:26;;;;;;;7.27;3.80;;;;;;;6.77;79.61;101631.84;6187321;28;20233;-67
2023/01/31 05:34:47;;;;;;;5.20;1.93;;;;;;;6.85;79.47;101629.53;6184604;28;20226;-68
2023/01/31 05:38:09;;;;;;;5.30;2.47;;;;;;;6.98;79.97;101623.34;6185099;28;20237;-67
2023/01/31 05:41:31;;;;;;;6.93;4.07;;;;;;;6.94;80.24;101620.94;6181296;28;20313;-67
2023/01/31 05:44:52;;;;;;;4.33;2.53;;;;;;;6.74;79.73;101613.28;6182791;28;20227;-68
2023/01/31 05:48:13;;;;;;;9.13;2.07;;;;;;;7.10;78.64;101608.31;6186598;28;20233;-68
2023/01/31 05:51:34;;;;;;;6.87;3.20;;;;;;;6.92;79.60;101615.69;6176466;28;20483;-67
2023/01/31 05:54:55;;;;;;;5.70;2.67;;;;;;;6.75;80.08;101596.22;6182001;28;20229;-68
2023/01/31 05:58:17;;;;;;;2.70;2.03;;;;;;;7.02;78.46;101598.06;6171564;28;20222;-68
2023/01/31 06:01:38;;;;;;;3.70;2.17;;;;;;;6.78;79.38;101596.06;6176978;28;20363;-68
2023/01/31 06:04:59;;;;;;;6.17;3.73;;;;;;;6.83;79.75;101604.66;6177221;28;20502;-68
2023/01/31 06:08:20;;;;;;;6.83;2.97;;;;;;;6.91;78.70;101599.69;6167210;28;20317;-69
2023/01/31 06:11:41;;;;;;;3.37;2.50;;;;;;;7.02;78.89;101607.94;6161747;28;20229;-68
2023/01/31 06:15:04;;;;;;;6.17;1.93;;;;;;;6.83;79.17;101601.97;6155010;28;20325;-68
2023/01/31 06:18:26;;;;;;;5.43;3.27;;;;;;;6.78;79.04;101596.91;6173044;28;20253;-66
2023/01/31 06:21:47;;;;;;;13.03;3.50;;;;;;;6.59;79.89;101587.41;6154229;28;20500;-70
2023/01/31 06:25:08;;;;;;;3.93;2.00;;;;;;;7.10;78.30;101587.72;6158398;28;20250;-68
2023/01/31 06:28:29;;;;;;;10.20;3.67;;;;;;;7.28;77.59;101581.19;6172219;28;20469;-68
2023/01/31 06:31:52;;;;;;;2.20;1.53;;;;;;;7.16;78.09;101576.63;6175253;28;20639;-68
2023/01/31 06:35:13;;;;;;;2.90;2.00;;;;;;;6.75;79.26;101601.59;6182052;28;20233;-68
2023/01/31 06:38:34;;;;;;;3.87;2.30;;;;;;;6.72;79.67;101574.97;6179328;28;20229;-68
2023/01/31 06:41:55;;;;;;;7.40;2.80;;;;;;;7.02;78.55;101576.63;6182365;28;20615;-69
2023/01/31 06:45:16;;;;;;;6.30;4.93;;;;;;;7.02;77.71;101579.31;6177478;28;20230;-68
2023/01/31 06:48:39;;;;;;;6.00;3.93;;;;;;;6.68;79.15;101560.91;6177942;28;20238;-68
2023/01/31 06:51:59;;;;;;;5.90;1.53;;;;;;;6.60;79.47;101565.03;6176374;28;20246;-68
2023/01/31 06:55:20;;;;;;;5.00;2.33;;;;;;;7.03;77.92;101554.22;6178329;28;20249;-67
2023/01/31 06:58:41;;;;;;;3.80;2.53;;;;;;;7.10;77.83;101550.19;6176684;28;20269;-69
2023/01/31 07:02:02;;;;;;;8.63;2.90;;;;;;;6.90;78.23;101544.38;6181079;28;20237;-67
2023/01/31 07:05:24;;;;;;;3.70;2.63;;;;;;;7.21;77.70;101528.06;6168428;28;20241;-68
2023/01/31 07:08:45;;;;;;;2.73;2.10;;;;;;;7.14;77.50;101532.94;6196468;28;20225;-67
2023/01/31 07:12:06;;;;;;;5.67;1.83;;;;;;;7.62;75.60;101520.84;6185752;28;20508;-68
2023/01/31 07:15:27;;;;;;;8.93;2.60;;;;;;;7.28;76.47;101516.81;6165203;28;20237;-67
2023/01/31 07:18:48;;;;;;;7.83;2.40;;;;;;;7.01;77.71;101515.06;6184872;28;20234;-69
2023/01/31 07:22:10;;;;;;;12.03;2.83;;;;;;;6.79;78.50;101507.53;6170430;28;20229;-70
2023/01/31 07:25:32;;;;;;;11.50;2.83;;;;;;;6.88;78.72;101496.25;6151630;28;20237;-68
2023/01/31 07:28:53;;;;;;;7.57;2.60;;;;;;;7.20;77.31;101478.94;6184996;28;20365;-70
2023/01/31 07:32:14;;;;;;;4.00;1.83;;;;;;;7.12;77.49;101480.38;6176161;28;20238;-68
2023/01/31 07:35:35;;;;;;;5.97;2.90;;;;;;;7.18;76.83;101463.91;6174375;28;20240;-69
2023/01/31 07:38:58;;;;;;;14.00;4.87;;;;;;;7.20;77.78;101465.53;6189101;28;20238;-69
2023/01/31 07:42:19;;;;;;;4.27;2.40;;;;;;;7.05;78.15;101471.88;6185333;28;21243;-69
2023/01/31 07:45:41;;;;;;;10.57;3.10;;;;;;;7.52;76.61;101455.34;6174674;28;20233;-68
2023/01/31 07:49:02;;;;;;;6.30;2.90;;;;;;;7.44;77.23;101454.16;6195992;28;20230;-68
2023/01/31 07:52:23;;;;;;;5.47;2.70;;;;;;;7.55;77.32;101440.88;6191373;28;20237;-68
2023/01/31 07:55:46;;;;;;;7.20;3.10;;;;;;;7.57;76.44;101423.69;6167949;28;20289;-67
2023/01/31 07:59:07;;;;;;;5.53;2.63;;;;;;;7.20;78.08;101438.72;6187941;28;20275;-70
2023/01/31 08:06:09;;;;;;;6.80;4.40;;;;;;;7.43;77.18;101430.94;6185590;28;20244;-69
2023/01/31 08:09:30;;;;;;;6.90;2.50;;;;;;;7.23;78.01;101440.34;6189816;28;20659;-70
2023/01/31 08:12:52;;;;;;;10.00;4.83;;;;;;;7.23;78.09;101426.94;6187279;28;20237;-68
2023/01/31 08:16:13;;;;;;;6.93;3.93;;;;;;;7.15;78.23;101422.06;6182127;28;20236;-68
2023/01/31 08:19:34;;;;;;;3.70;2.80;;;;;;;7.46;77.23;101403.94;6185168;28;20256;-68
2023/01/31 08:22:57;;;;;;;11.10;3.50;;;;;;;7.46;77.49;101402.13;6186503;28;20230;-69
2023/01/31 08:26:20;;;;;;;3.90;2.37;;;;;;;7.25;78.15;101400.88;6178107;28;20228;-69
2023/01/31 08:29:42;;;;;;;12.00;3.97;;;;;;;7.52;77.18;101403.53;6186345;28;20238;-68
2023/01/31 08:33:03;;;;;;;4.27;3.47;;;;;;;7.59;77.48;101400.34;6180425;28;20320;-68
2023/01/31 08:36:26;;;;;;;5.87;3.20;;;;;;;7.56;77.74;101405.03;6183176;28;20237;-68
2023/01/31 08:39:47;;;;;;;7.77;4.23;;;;;;;7.50;77.55;101390.22;6184719;28;20333;-68
2023/01/31 08:43:09;;;;;;;5.17;3.27;;;;;;;7.74;77.60;101379.66;6176916;28;20608;-69
2023/01/31 08:46:33;;;;;;;3.07;2.57;;;;;;;7.41;77.46;101382.78;6174985;28;20225;-68
2023/01/31 08:49:54;;;;;;;5.53;2.57;;;;;;;7.69;76.57;101365.66;6179742;28;20761;-68
2023/01/31 08:53:15;;;;;;;11.27;4.23;;;;;;;7.45;77.57;101364.69;6174427;28;20233;-68
2023/01/31 08:56:36;;;;;;;6.10;4.27;;;;;;;7.71;76.73;101367.28;6180281;28;20233;-69
2023/01/31 08:59:56;;;;;;;6.03;3.33;;;;;;;7.71;76.70;101345.81;6186969;28;20226;-69
2023/01/31 09:03:18;;;;;;;3.33;2.77;;;;;;;7.55;76.95;101338.94;6177816;28;20234;-70
2023/01/31 09:06:39;;;;;;;3.17;2.97;;;;;;;7.65;76.81;101356.97;6175077;28;20237;-68
2023/01/31 09:10:00;;;;;;;6.13;4.43;;;;;;;7.69;76.88;101352.25;6181271;28;20222;-69
2023/01/31 09:13:23;;;;;;;2.83;2.57;;;;;;;7.70;77.29;101329.81;6184265;28;20234;-68
2023/01/31 09:16:45;;;;;;;9.73;2.73;;;;;;;8.21;76.40;101319.91;6175920;28;20265;-69
2023/01/31 09:20:09;;;;;;;6.30;2.60;;;;;;;7.34;79.48;101311.78;6180831;28;20231;-68
2023/01/31 09:23:30;;;;;;;4.77;2.60;;;;;;;7.64;78.67;101292.69;6181277;28;20624;-71
2023/01/31 09:26:53;;;;;;;8.67;4.07;;;;;;;7.68;78.31;101289.69;6164099;28;20615;-68
2023/01/31 09:30:15;;;;;;;7.67;4.80;;;;;;;7.64;78.77;101276.56;6173726;28;20233;-69
2023/01/31 09:33:36;;;;;;;14.53;3.10;;;;;;;7.45;78.68;101298.47;6183558;28;20233;-68
2023/01/31 09:36:58;;;;;;;6.50;3.23;;;;;;;7.33;79.78;101279.69;6170931;28;20681;-68
2023/01/31 09:40:23;;;;;;;4.70;2.80;;;;;;;7.46;80.31;101270.69;6161676;28;20233;-70
2023/01/31 09:43:49;;;;;;;3.87;2.73;;;;;;;7.42;81.16;101265.66;6185204;28;20234;-68
2023/01/31 09:47:20;;;;;;;4.13;2.37;;;;;;;7.07;82.23;101255.50;6180888;28;20253;-69
2023/01/31 09:50:47;;;;;;;5.57;3.17;;;;;;;7.23;82.37;101266.94;6177846;28;20319;-68
2023/01/31 09:54:19;;;;;;;5.07;3.13;;;;;;;7.25;82.41;101256.94;6186710;28;20241;-68
2023/01/31 09:57:49;;;;;;;4.23;3.03;;;;;;;7.29;81.66;101265.63;6185204;28;20234;-68
2023/01/31 10:01:18;;;;;;;5.90;2.97;;;;;;;7.11;83.49;101246.28;6172433;28;20233;-68
2023/01/31 10:04:49;;;;;;;3.43;2.90;;;;;;;7.14;84.06;101242.56;6183899;28;20233;-70
2023/01/31 10:08:17;;;;;;;3.73;3.43;;;;;;;7.22;83.65;101234.84;6165432;28;20238;-71
2023/01/31 10:11:45;;;;;;;4.40;2.97;;;;;;;7.54;82.19;101220.03;6162483;28;20680;-70
2023/01/31 10:15:15;;;;;;;3.60;3.20;;;;;;;7.15;84.14;101223.66;6180369;28;20218;-70
2023/01/31 10:18:40;;;;;;;4.17;2.90;;;;;;;7.50;84.48;101223.91;6181560;28;20257;-67
2023/01/31 10:22:08;;;;;;;6.63;3.70;;;;;;;7.48;84.27;101214.25;6178618;28;20379;-67
2023/01/31 10:25:34;;;;;;;6.07;3.27;;;;;;;7.51;84.89;101204.16;6173432;28;20229;-68
2023/01/31 10:29:00;;;;;;;3.97;3.23;;;;;;;7.52;84.83;101199.66;6185836;28;20225;-72
2023/01/31 10:32:27;;;;;;;3.50;2.97;;;;;;;7.51;85.18;101188.06;6172750;28;20527;-69
2023/01/31 10:35:51;;;;;;;3.37;3.03;;;;;;;7.53;85.35;101180.75;6173919;28;20737;-70
2023/01/31 10:39:21;;;;;;;5.80;4.20;;;;;;;7.67;85.88;101187.84;6182009;28;20234;-69
2023/01/31 10:42:45;;;;;;;4.50;4.13;;;;;;;7.55;85.84;101175.31;6177029;28;20257;-69
2023/01/31 10:46:11;;;;;;;2.87;2.67;;;;;;;7.51;86.90;101160.41;6169292;28;20335;-69
2023/01/31 10:49:32;;;;;;;4.63;2.93;;;;;;;7.84;85.01;101161.47;6184113;28;20234;-69
2023/01/31 10:53:08;;;;;;;7.20;4.63;;;;;;;7.64;85.10;101140.63;6182369;28;20233;-70
2023/01/31 10:56:33;;;;;;;6.10;4.30;;;;;;;7.45;86.69;101150.94;6176099;28;20257;-70
2023/01/31 10:59:54;;;;;;;4.07;3.77;;;;;;;7.82;85.37;101136.59;6176005;28;20234;-70
2023/01/31 11:03:17;;;;;;;7.30;4.40;;;;;;;7.63;86.11;101143.41;6179858;28;20709;-71
2023/01/31 11:06:38;;;;;;;4.13;3.30;;;;;;;7.70;86.52;101124.06;6179476;28;20236;-69
2023/01/31 11:09:59;;;;;;;3.23;3.03;;;;;;;7.68;85.69;101125.13;6183712;28;20229;-70
2023/01/31 11:13:20;;;;;;;2.80;2.57;;;;;;;7.55;86.62;101124.34;6172240;28;20246;-70
2023/01/31 11:16:41;;;;;;;3.50;3.13;;;;;;;7.88;85.87;101128.09;6171644;28;20226;-70
2023/01/31 11:20:05;;;;;;;6.27;3.73;;;;;;;8.00;85.38;101143.31;6176479;28;20526;-69
2023/01/31 11:23:29;;;;;;;4.90;2.73;;;;;;;7.84;85.24;101142.69;6169282;28;20238;-70
2023/01/31 11:26:53;;;;;;;4.67;4.17;;;;;;;7.86;85.84;101127.34;6167295;28;20312;-69
2023/01/31 11:30:23;;;;;;;2.97;2.40;;;;;;;7.67;87.13;101134.19;6149381;28;20265;-66
2023/01/31 11:33:47;;;;;;;2.77;2.50;;;;;;;7.88;86.90;101117.38;6179019;28;20258;-66
2023/01/31 11:37:16;;;;;;;2.90;2.63;;;;;;;8.22;85.85;101101.44;6177567;28;20245;-69
2023/01/31 11:40:38;;;;;;;3.93;2.63;;;;;;;8.01;100.00;101115.47;6176051;28;20236;-68
2023/01/31 11:44:12;;;;;;;4.47;3.60;;;;;;;7.93;100.00;101107.13;6192315;28;20604;-69
2023/01/31 11:47:42;;;;;;;10.63;4.70;;;;;;;7.77;100.00;101094.97;6187637;28;20233;-71
2023/01/31 11:51:04;;;;;;;3.63;2.37;;;;;;;8.09;100.00;101101.50;6180312;28;20233;-69
2023/01/31 11:54:29;;;;;;;2.63;2.07;;;;;;;8.06;100.00;101094.53;6187183;28;20324;-69
2023/01/31 11:58:00;;;;;;;1.80;1.70;;;;;;;7.89;100.00;101083.31;6171602;28;20234;-71
2023/01/31 12:01:24;;;;;;;5.20;2.63;;;;;;;7.89;100.00;101077.94;6169747;28;20224;-69
2023/01/31 12:04:44;;;;;;;2.37;1.67;;;;;;;7.81;100.00;101073.16;6177939;28;20229;-67
2023/01/31 12:08:06;;;;;;;2.20;2.00;;;;;;;8.08;100.00;101064.88;6161781;28;20238;-69
2023/01/31 12:11:30;;;;;;;2.27;1.83;;;;;;;8.23;100.00;101066.41;6172867;28;20233;-71
2023/01/31 12:14:55;;;;;;;1.43;1.33;;;;;;;7.90;100.00;101060.88;6172236;28;20234;-71
2023/01/31 12:18:24;;;;;;;3.17;1.83;;;;;;;8.08;100.00;101065.72;6179738;28;20607;-72
2023/01/31 12:21:56;;;;;;;3.07;2.23;;;;;;;8.28;100.00;101040.06;6176772;28;20237;-71
2023/01/31 12:25:27;;;;;;;2.83;1.97;;;;;;;8.32;100.00;101051.44;6168282;28;20253;-70
2023/01/31 12:29:09;;;;;;;3.83;2.30;;;;;;;8.33;100.00;101054.00;6188696;28;20233;-71
2023/01/31 12:32:43;;;;;;;5.03;1.73;;;;;;;8.37;100.00;101043.88;6186325;28;20233;-70
2023/01/31 12:36:16;;;;;;;5.80;2.30;;;;;;;8.43;100.00;101030.81;6183833;28;20233;-68
2023/01/31 12:39:52;;;;;;;4.23;2.97;;;;;;;8.34;100.00;101047.69;6192506;28;20218;-71
2023/01/31 12:43:29;;;;;;;1.47;1.37;;;;;;;8.48;100.00;101034.03;6191405;28;20551;-69
2023/01/31 12:47:06;;;;;;;1.27;1.27;;;;;;;8.51;100.00;101019.50;6187390;28;20236;-68
2023/01/31 12:50:37;;;;;;;1.40;1.30;;;;;;;8.22;100.00;101020.88;6177279;28;20682;-69
2023/01/31 12:54:08;;;;;;;3.50;1.23;;;;;;;8.59;100.00;101025.13;6193206;28;20236;-68
2023/01/31 12:57:39;;;;;;;0.80;0.80;;;;;;;8.50;100.00;101012.41;6187905;28;20364;-68
2023/01/31 13:01:05;;;;;;;1.23;1.03;;;;;;;8.52;100.00;101008.63;6189294;28;20323;-70
2023/01/31 13:04:35;;;;;;;6.57;0.93;;;;;;;8.57;100.00;101000.22;6186606;28;20254;-69
2023/01/31 13:08:01;;;;;;;1.90;1.63;;;;;;;8.53;100.00;100996.06;6191226;28;20599;-64
2023/01/31 13:11:27;;;;;;;1.50;1.10;;;;;;;8.86;100.00;100986.16;6185918;28;20748;-64
2023/01/31 13:14:51;;;;;;;1.10;0.80;;;;;;;8.74;100.00;100986.31;6192867;28;20309;-69
2023/01/31 13:18:14;;;;;;;0.90;0.87;;;;;;;8.84;100.00;100966.59;6182129;28;20608;-69
2023/01/31 13:21:43;;;;;;;1.97;1.33;;;;;;;9.08;100.00;100982.59;6183319;28;20229;-68
2023/01/31 13:25:16;;;;;;;3.77;1.57;;;;;;;9.18;100.00;100982.75;6183622;28;20245;-68
2023/01/31 13:28:44;;;;;;;5.30;1.07;;;;;;;8.61;100.00;100994.50;6176846;28;20233;-69
2023/01/31 13:32:12;;;;;;;2.00;1.90;;;;;;;9.10;100.00;100986.03;6175710;28;20244;-69
2023/01/31 13:35:38;;;;;;;1.13;1.13;;;;;;;9.15;100.00;100981.16;6172776;28;20264;-70
2023/01/31 13:39:05;;;;;;;1.77;1.67;;;;;;;9.19;100.00;100987.13;6188569;28;20234;-68
2023/01/31 13:42:27;;;;;;;1.60;0.90;;;;;;;9.10;100.00;100983.34;6187006;28;20237;-69
2023/01/31 13:45:53;;;;;;;2.00;1.17;;;;;;;9.13;100.00;100980.41;6175797;28;20239;-69
2023/01/31 13:49:19;;;;;;;2.33;1.23;;;;;;;9.29;100.00;100977.31;6189462;28;20231;-68
2023/01/31 13:52:46;;;;;;;4.13;1.30;;;;;;;9.30;100.00;100966.44;6186033;28;20226;-68
2023/01/31 13:56:13;;;;;;;1.73;1.37;;;;;;;9.42;100.00;100959.19;6179247;28;20538;-67
2023/01/31 13:59:37;;;;;;;2.37;1.57;;;;;;;9.31;100.00;100945.75;6192285;28;20225;-69
2023/01/31 14:03:02;;;;;;;2.27;1.70;;;;;;;9.54;100.00;100942.03;6186367;28;20230;-70
2023/01/31 14:06:23;;;;;;;1.50;1.30;;;;;;;9.63;100.00;100936.75;6185197;28;20233;-69
2023/01/31 14:09:46;;;;;;;2.03;1.20;;;;;;;9.39;100.00;100941.47;6189744;28;20233;-69
2023/01/31 14:13:27;;;;;;;2.23;1.90;;;;;;;9.12;100.00;100927.59;6166776;28;20266;-70
2023/01/31 14:16:49;;;;;;;2.80;2.60;;;;;;;9.20;100.00;100937.75;6175604;28;20233;-69
2023/01/31 14:20:26;;;;;;;1.50;1.40;;;;;;;9.34;100.00;100932.06;6170188;28;20257;-70
2023/01/31 14:23:47;;;;;;;5.20;1.53;;;;;;;9.17;100.00;100932.59;6187592;28;21091;-70
2023/01/31 14:27:17;;;;;;;1.90;1.27;;;;;;;9.50;100.00;100944.13;6181376;28;22444;-70
2023/01/31 14:30:46;;;;;;;1.03;1.03;;;;;;;9.39;100.00;100943.28;6175081;28;20224;-69
2023/01/31 14:34:15;;;;;;;1.83;1.73;;;;;;;9.44;100.00;100944.63;6192015;28;20552;-69
2023/01/31 14:37:51;;;;;;;2.47;1.57;;;;;;;9.33;100.00;100949.19;6188686;28;20225;-69
2023/01/31 14:41:21;;;;;;;3.07;1.40;;;;;;;9.33;100.00;100939.28;6180414;28;20233;-71
2023/01/31 14:44:57;;;;;;;3.20;1.57;;;;;;;9.20;100.00;100922.44;6178987;28;20238;-69
2023/01/31 14:48:41;;;;;;;5.33;1.37;;;;;;;9.44;100.00;100919.56;6185913;28;20545;-70
2023/01/31 14:52:18;;;;;;;5.23;2.80;;;;;;;9.27;100.00;100914.72;6181581;28;20229;-70
2023/01/31 14:55:53;;;;;;;2.53;1.53;;;;;;;9.31;100.00;100924.25;6167653;28;20329;-69
2023/01/31 14:59:28;;;;;;;2.23;1.70;;;;;;;9.29;100.00;100932.44;6184409;28;20250;-69
2023/01/31 15:02:54;;;;;;;9.97;3.70;;;;;;;9.46;100.00;100929.22;6172547;28;20234;-73
2023/01/31 15:06:24;;;;;;;3.40;2.70;;;;;;;9.68;100.00;100927.44;6169226;28;20705;-71
2023/01/31 15:09:48;;;;;;;2.80;1.77;;;;;;;9.66;100.00;100936.47;6173642;28;20594;-71
2023/01/31 15:13:44;;;;;;;6.00;3.20;;;;;;;9.57;100.00;100923.78;6179967;28;20233;-70
2023/01/31 15:17:11;;;;;;;5.63;3.23;;;;;;;9.70;100.00;100926.28;6185154;28;20307;-70
2023/01/31 15:20:44;;;;;;;4.13;1.87;;;;;;;9.56;100.00;100907.75;6185832;28;20509;-70
2023/01/31 15:24:17;;;;;;;3.33;2.70;;;;;;;9.72;100.00;100928.88;6200019;28;20663;-69
2023/01/31 15:27:41;;;;;;;7.17;3.03;;;;;;;9.63;100.00;100935.88;6204820;28;20225;-69
2023/01/31 15:31:06;;;;;;;4.70;2.00;;;;;;;9.72;100.00;100945.84;6185163;28;20229;-70
2023/01/31 15:34:31;;;;;;;6.07;5.00;;;;;;;9.79;100.00;100938.13;6197020;28;20394;-68
2023/01/31 15:38:00;;;;;;;2.83;1.77;;;;;;;10.14;100.00;100944.94;6197981;28;20663;-70
2023/01/31 15:41:25;;;;;;;5.27;2.30;;;;;;;9.93;100.00;100940.53;6192450;28;20324;-69
2023/01/31 15:44:45;;;;;;;4.97;2.50;;;;;;;9.95;100.00;100943.94;6193469;28;20556;-71
2023/01/31 15:48:12;;;;;;;7.20;2.33;;;;;;;10.05;100.00;100944.84;6193054;28;20510;-69
2023/01/31 15:51:33;;;;;;;8.30;3.80;;;;;;;9.86;100.00;100972.50;6191407;28;20241;-71
2023/01/31 15:54:56;;;;;;;6.73;2.73;;;;;;;10.22;100.00;100957.78;6186106;28;20328;-69
2023/01/31 15:58:21;;;;;;;6.00;2.63;;;;;;;10.29;100.00;100945.47;6185714;28;20234;-71
2023/01/31 16:01:47;;;;;;;5.90;3.83;;;;;;;9.95;100.00;100939.38;6452926;23;20241;-71
2023/01/31 16:05:09;;;;;;;9.40;2.73;;;;;;;10.08;100.00;100955.34;6177040;28;20619;-71
2023/01/31 16:08:33;;;;;;;4.57;3.00;;;;;;;9.97;100.00;100942.78;6173632;28;20229;-71
2023/01/31 16:11:55;;;;;;;8.07;4.37;;;;;;;9.97;100.00;100956.25;6177170;28;20225;-70